Time;durP1;ratioP1;P1;durP2;ratioP2;P2;SDS_P1;SDS_P2;PMS_P1;PMS_P2;Temp;Humidity;BMP_temperature;BMP_pressure;BME280_temperature;BME280_humidity;BME280_pressure;Samples;Min_cycle;Max_cycle;Signal;HPM_P1;HPM_P2
2024/02/05 00:01:47;;;;;;;3.05;1.55;;;10.70;72.20;;;;;;2520418;54;21009;-68
2024/02/05 00:04:14;;;;;;;3.10;1.42;;;10.70;72.30;;;;;;2520703;54;21783;-69
2024/02/05 00:06:41;;;;;;;3.03;1.60;;;10.70;72.30;;;;;;2286345;55;20957;-69
2024/02/05 00:09:07;;;;;;;3.83;1.83;;;10.70;72.20;;;;;;2288440;56;21347;-67
2024/02/05 00:11:34;;;;;;;3.20;1.70;;;10.70;72.30;;;;;;2521541;54;21766;-67
2024/02/05 00:14:01;;;;;;;3.62;1.65;;;10.70;72.30;;;;;;2281705;56;20985;-67
2024/02/05 00:16:27;;;;;;;3.20;1.42;;;10.70;72.40;;;;;;2286326;55;21060;-68
2024/02/05 00:18:53;;;;;;;2.95;1.60;;;10.80;72.40;;;;;;2520471;54;21002;-68
2024/02/05 00:21:19;;;;;;;3.05;1.40;;;10.80;72.40;;;;;;2520549;54;21770;-67
2024/02/05 00:23:46;;;;;;;3.33;1.60;;;10.80;72.50;;;;;;2286277;55;20953;-68
2024/02/05 00:26:13;;;;;;;3.03;1.50;;;10.80;72.40;;;;;;2286487;55;20974;-67
2024/02/05 00:28:40;;;;;;;3.45;1.60;;;10.80;72.40;;;;;;2520923;54;21240;-66
2024/02/05 00:31:06;;;;;;;4.80;1.70;;;10.80;72.40;;;;;;2520503;54;20941;-68
2024/02/05 00:33:32;;;;;;;5.00;1.80;;;10.80;72.40;;;;;;2521155;54;20929;-67
2024/02/05 00:35:58;;;;;;;4.35;1.77;;;10.80;72.40;;;;;;2285969;55;20913;-67
2024/02/05 00:38:25;;;;;;;3.30;1.62;;;10.80;72.30;;;;;;2520474;54;20988;-67
2024/02/05 00:40:54;;;;;;;3.65;1.77;;;10.80;72.30;;;;;;2520350;54;20985;-67
2024/02/05 00:43:21;;;;;;;5.03;1.83;;;10.80;72.20;;;;;;2286116;55;20972;-68
2024/02/05 00:45:47;;;;;;;3.65;1.90;;;10.80;72.30;;;;;;2281761;56;21022;-68
2024/02/05 00:48:13;;;;;;;3.95;1.75;;;10.80;72.20;;;;;;2520176;54;20956;-67
2024/02/05 00:50:42;;;;;;;3.42;1.75;;;10.80;72.30;;;;;;2286337;55;21016;-68
2024/02/05 00:53:09;;;;;;;3.53;1.70;;;10.80;72.30;;;;;;2287111;56;21733;-70
2024/02/05 00:55:35;;;;;;;4.00;1.70;;;10.90;72.50;;;;;;2516483;54;20993;-69
2024/02/05 00:58:02;;;;;;;4.15;1.85;;;10.90;72.40;;;;;;2285896;55;21402;-69
2024/02/05 01:00:29;;;;;;;4.12;1.95;;;10.90;72.40;;;;;;2285226;55;21097;-67
2024/02/05 01:02:55;;;;;;;3.20;1.65;;;10.90;72.30;;;;;;2519205;54;21392;-67
2024/02/05 01:05:23;;;;;;;5.15;1.90;;;10.90;72.30;;;;;;2520858;54;20953;-67
2024/02/05 01:07:50;;;;;;;3.72;1.90;;;10.90;72.30;;;;;;2286004;55;20941;-68
2024/02/05 01:10:17;;;;;;;4.32;2.12;;;10.90;72.30;;;;;;2286868;55;21088;-66
2024/02/05 01:12:43;;;;;;;3.97;1.87;;;10.90;72.30;;;;;;2519575;54;21005;-69
2024/02/05 01:15:10;;;;;;;3.60;1.90;;;10.90;72.30;;;;;;2285731;55;21008;-68
2024/02/05 01:17:37;;;;;;;4.57;2.00;;;10.90;72.30;;;;;;2286955;55;20933;-68
2024/02/05 01:20:10;;;;;;;4.97;1.87;;;10.90;72.30;;;;;;2287152;56;21304;-67
2024/02/05 01:22:38;;;;;;;3.90;2.15;;;10.90;72.30;;;;;;2286623;55;21048;-67
2024/02/05 01:25:04;;;;;;;4.03;2.40;;;10.90;72.20;;;;;;2520632;54;20966;-68
2024/02/05 01:27:31;;;;;;;3.97;2.20;;;10.90;72.20;;;;;;2287199;55;21001;-67
2024/02/05 01:29:57;;;;;;;3.80;1.87;;;10.90;72.20;;;;;;2286418;55;21005;-68
2024/02/05 01:32:24;;;;;;;3.40;1.80;;;10.90;72.20;;;;;;2286507;55;20941;-67
2024/02/05 01:34:50;;;;;;;3.10;1.55;;;10.90;72.20;;;;;;2520805;54;21001;-67
2024/02/05 01:37:17;;;;;;;5.97;1.80;;;10.90;72.30;;;;;;2519814;54;20969;-67
2024/02/05 01:39:44;;;;;;;2.97;1.42;;;10.90;72.30;;;;;;2519975;54;21005;-67
2024/02/05 01:42:10;;;;;;;3.08;1.48;;;10.90;72.30;;;;;;2285241;55;21292;-67
2024/02/05 01:44:36;;;;;;;3.47;1.80;;;10.90;72.30;;;;;;2521184;54;20953;-68
2024/02/05 01:47:03;;;;;;;3.97;1.90;;;10.90;72.40;;;;;;2286111;55;20973;-68
2024/02/05 01:49:29;;;;;;;4.40;1.90;;;11.00;72.40;;;;;;2281938;56;21022;-68
2024/02/05 01:51:56;;;;;;;3.85;2.10;;;11.00;72.40;;;;;;2519623;54;20940;-66
2024/02/05 01:54:22;;;;;;;4.82;2.10;;;11.00;72.40;;;;;;2279919;56;21442;-66
2024/02/05 01:56:51;;;;;;;4.05;1.92;;;11.00;72.30;;;;;;2281709;55;21057;-67
2024/02/05 01:59:18;;;;;;;4.75;2.37;;;11.00;72.30;;;;;;2283681;55;20925;-68
2024/02/05 02:01:44;;;;;;;4.30;2.28;;;11.00;72.20;;;;;;2285799;56;21277;-67
2024/02/05 02:04:10;;;;;;;3.55;1.75;;;11.00;72.10;;;;;;2516156;54;21009;-67
2024/02/05 02:06:37;;;;;;;3.70;1.92;;;11.00;72.20;;;;;;2508184;55;21531;-68
2024/02/05 02:09:05;;;;;;;6.85;2.97;;;11.00;72.30;;;;;;2283518;55;20980;-67
2024/02/05 02:11:31;;;;;;;5.28;2.50;;;11.00;72.10;;;;;;2285111;55;20949;-67
2024/02/05 02:13:58;;;;;;;4.70;2.60;;;11.00;72.10;;;;;;2515992;54;20949;-68
2024/02/05 02:16:29;;;;;;;5.40;2.40;;;11.00;72.10;;;;;;2285176;55;21005;-67
2024/02/05 02:18:56;;;;;;;5.50;2.22;;;11.00;71.90;;;;;;2521119;54;20909;-67
2024/02/05 02:21:22;;;;;;;5.35;2.50;;;11.00;72.10;;;;;;2286648;55;20964;-67
2024/02/05 02:23:49;;;;;;;6.05;2.87;;;11.00;72.00;;;;;;2520521;54;21072;-67
2024/02/05 02:26:15;;;;;;;4.72;2.58;;;11.00;72.00;;;;;;2516945;54;20977;-67
2024/02/05 02:28:41;;;;;;;5.05;2.50;;;11.00;71.90;;;;;;2279122;56;20946;-68
2024/02/05 02:31:08;;;;;;;6.75;2.72;;;11.00;72.00;;;;;;2286097;55;20957;-67
2024/02/05 02:34:35;;;;;;;5.18;2.85;;;10.90;71.90;;;;;;2521335;54;21209;-67
2024/02/05 02:37:05;;;;;;;5.25;2.45;;;11.00;70.70;;;;;;2285055;55;20948;-68
2024/02/05 02:39:32;;;;;;;6.47;2.40;;;11.00;71.80;;;;;;2287167;55;21104;-68
2024/02/05 02:41:59;;;;;;;6.43;2.50;;;10.90;71.80;;;;;;2286157;55;21009;-67
2024/02/05 02:44:26;;;;;;;4.20;2.45;;;10.90;72.60;;;;;;2282531;55;20994;-68
2024/02/05 02:46:56;;;;;;;5.37;2.42;;;10.90;71.90;;;;;;2520940;54;20985;-68
2024/02/05 02:49:22;;;;;;;5.43;2.35;;;10.90;72.00;;;;;;2286233;55;20941;-68
2024/02/05 02:51:49;;;;;;;4.18;2.15;;;10.90;72.00;;;;;;2287311;55;20926;-68
2024/02/05 02:54:16;;;;;;;5.22;2.40;;;10.90;72.00;;;;;;2518991;54;21061;-68
2024/02/05 02:56:42;;;;;;;4.60;2.37;;;10.90;72.00;;;;;;2283803;55;20953;-67
2024/02/05 02:59:10;;;;;;;4.40;2.50;;;10.90;72.00;;;;;;2519951;54;21056;-68
2024/02/05 03:01:40;;;;;;;3.65;2.17;;;10.90;72.00;;;;;;2520826;54;20993;-67
2024/02/05 03:04:08;;;;;;;4.07;2.25;;;10.90;72.10;;;;;;2284801;55;21259;-67
2024/02/05 03:06:35;;;;;;;5.15;2.75;;;10.90;72.00;;;;;;2286211;55;20992;-66
2024/02/05 03:09:02;;;;;;;4.45;2.10;;;10.90;71.90;;;;;;2285903;55;20949;-67
2024/02/05 03:11:29;;;;;;;3.62;2.03;;;10.90;71.90;;;;;;2520669;54;20993;-67
2024/02/05 03:13:55;;;;;;;7.03;2.53;;;10.90;72.00;;;;;;2286571;55;20961;-66
2024/02/05 03:16:21;;;;;;;3.70;2.10;;;10.90;71.90;;;;;;2286246;55;20999;-67
2024/02/05 03:18:48;;;;;;;3.50;1.87;;;10.90;71.90;;;;;;2521080;54;20941;-69
2024/02/05 03:21:15;;;;;;;4.80;2.30;;;10.90;71.90;;;;;;2519283;54;20981;-68
2024/02/05 03:23:43;;;;;;;4.12;2.12;;;10.90;71.90;;;;;;2513057;54;20998;-68
2024/02/05 03:26:10;;;;;;;4.15;2.30;;;10.90;72.00;;;;;;2517378;54;20942;-66
2024/02/05 03:28:36;;;;;;;4.12;1.90;;;10.90;72.00;;;;;;2510076;55;20994;-67
2024/02/05 03:31:06;;;;;;;3.90;1.90;;;10.90;72.00;;;;;;2520925;54;20965;-67
2024/02/05 03:33:34;;;;;;;4.15;2.10;;;10.90;71.90;;;;;;2287694;55;21036;-66
2024/02/05 03:36:00;;;;;;;6.12;2.33;;;10.90;72.10;;;;;;2520111;54;20961;-66
2024/02/05 03:38:27;;;;;;;3.92;1.70;;;10.90;72.10;;;;;;2291119;55;21874;-68
2024/02/05 03:40:56;;;;;;;3.47;1.77;;;10.90;72.10;;;;;;2280871;55;21028;-66
2024/02/05 03:43:23;;;;;;;3.87;1.83;;;10.90;72.20;;;;;;2285055;55;20965;-68
2024/02/05 03:45:49;;;;;;;3.42;1.83;;;10.90;72.10;;;;;;2520799;54;20925;-67
2024/02/05 03:48:15;;;;;;;4.40;1.50;;;10.90;72.00;;;;;;2285725;55;21024;-66
2024/02/05 03:50:42;;;;;;;3.60;1.83;;;10.90;72.00;;;;;;2286786;55;20985;-67
2024/02/05 03:53:08;;;;;;;4.68;1.80;;;10.90;72.00;;;;;;2519986;54;20993;-66
2024/02/05 03:55:34;;;;;;;2.70;1.25;;;10.90;72.00;;;;;;2286566;55;21173;-66
2024/02/05 03:58:03;;;;;;;3.00;1.60;;;10.90;71.90;;;;;;2288011;55;21441;-68
2024/02/05 04:00:29;;;;;;;4.03;1.40;;;10.90;72.00;;;;;;2286168;55;20937;-67
2024/02/05 04:02:56;;;;;;;3.72;1.50;;;10.90;71.90;;;;;;2286301;55;21025;-67
2024/02/05 04:05:25;;;;;;;2.80;1.30;;;10.90;71.90;;;;;;2286506;55;21746;-67
2024/02/05 04:07:51;;;;;;;3.72;1.50;;;10.90;71.90;;;;;;2521093;54;21020;-68
2024/02/05 04:10:17;;;;;;;4.62;1.40;;;10.90;72.00;;;;;;2284738;56;21045;-68
2024/02/05 04:12:45;;;;;;;7.07;2.12;;;10.90;71.90;;;;;;2283458;56;21028;-68
2024/02/05 04:15:13;;;;;;;3.28;1.80;;;10.90;72.00;;;;;;2519706;54;21033;-68
2024/02/05 04:17:39;;;;;;;2.92;1.37;;;10.90;72.10;;;;;;2286567;55;21185;-67
2024/02/05 04:20:06;;;;;;;3.78;1.60;;;10.90;72.00;;;;;;2286189;55;21000;-67
2024/02/05 04:22:33;;;;;;;3.95;1.73;;;10.90;72.10;;;;;;2286486;55;21261;-68
2024/02/05 04:25:00;;;;;;;3.33;1.40;;;10.90;72.10;;;;;;2285930;55;20937;-68
2024/02/05 04:27:26;;;;;;;3.92;1.77;;;10.80;72.10;;;;;;2286108;55;21045;-66
2024/02/05 04:29:55;;;;;;;5.25;1.77;;;11.00;72.30;;;;;;2286309;55;21018;-67
2024/02/05 04:32:26;;;;;;;3.90;1.60;;;10.90;72.20;;;;;;2279575;56;21095;-67
2024/02/05 04:34:55;;;;;;;2.40;1.30;;;10.90;72.10;;;;;;2520001;54;20986;-68
2024/02/05 04:37:22;;;;;;;2.85;1.55;;;10.90;72.00;;;;;;2519610;54;21034;-67
2024/02/05 04:39:48;;;;;;;2.90;1.40;;;10.90;72.10;;;;;;2511368;55;21780;-69
2024/02/05 04:42:14;;;;;;;3.00;1.42;;;10.90;72.10;;;;;;2285304;55;21818;-68
2024/02/05 04:44:41;;;;;;;3.00;1.48;;;10.90;72.10;;;;;;2289273;55;20948;-67
2024/02/05 04:47:08;;;;;;;4.05;1.33;;;10.90;72.00;;;;;;2511437;54;21037;-69
2024/02/05 04:49:34;;;;;;;4.53;1.58;;;10.90;72.10;;;;;;2286430;55;21743;-67
2024/02/05 04:52:01;;;;;;;2.72;1.35;;;10.90;72.10;;;;;;2285929;55;21036;-68
2024/02/05 04:54:29;;;;;;;3.22;1.40;;;10.90;72.20;;;;;;2285914;55;21884;-66
2024/02/05 04:56:56;;;;;;;3.37;1.27;;;10.90;72.20;;;;;;2286850;55;20945;-68
2024/02/05 04:59:26;;;;;;;2.70;1.30;;;10.90;72.10;;;;;;2284721;56;20957;-67
2024/02/05 05:01:52;;;;;;;2.72;1.27;;;10.90;72.10;;;;;;2283782;56;21875;-67
2024/02/05 05:04:18;;;;;;;3.25;1.40;;;10.90;72.10;;;;;;2285290;55;21092;-66
2024/02/05 05:06:45;;;;;;;3.40;1.50;;;10.90;72.00;;;;;;2520554;54;20933;-68
2024/02/05 05:09:13;;;;;;;3.45;1.50;;;10.90;71.90;;;;;;2519788;54;20925;-66
2024/02/05 05:11:41;;;;;;;3.72;1.80;;;10.90;71.90;;;;;;2512884;54;21014;-67
2024/02/05 05:14:08;;;;;;;3.22;1.50;;;10.90;71.80;;;;;;2517779;54;21732;-67
2024/02/05 05:16:35;;;;;;;3.72;1.35;;;10.90;71.80;;;;;;2286247;55;21281;-66
2024/02/05 05:19:01;;;;;;;4.03;1.67;;;10.90;71.90;;;;;;2288328;55;21018;-67
2024/02/05 05:21:28;;;;;;;3.42;1.58;;;10.90;71.90;;;;;;2279451;56;20981;-67
2024/02/05 05:23:54;;;;;;;2.75;1.42;;;10.90;72.00;;;;;;2519942;54;21307;-67
2024/02/05 05:26:23;;;;;;;3.50;1.40;;;10.90;72.00;;;;;;2285888;55;20965;-66
2024/02/05 05:28:53;;;;;;;3.28;1.42;;;10.90;72.10;;;;;;2520958;54;20948;-66
2024/02/05 05:31:19;;;;;;;5.25;1.40;;;10.90;72.20;;;;;;2519535;54;21300;-68
2024/02/05 05:33:46;;;;;;;4.25;1.20;;;10.90;72.10;;;;;;2287007;55;20958;-68
2024/02/05 05:36:12;;;;;;;3.97;1.48;;;10.90;72.10;;;;;;2511108;54;20997;-68
2024/02/05 05:38:39;;;;;;;3.60;1.40;;;10.90;72.10;;;;;;2286344;55;20937;-67
2024/02/05 05:41:05;;;;;;;3.12;1.23;;;10.90;72.10;;;;;;2286224;55;21020;-67
2024/02/05 05:43:32;;;;;;;2.60;1.33;;;10.90;72.10;;;;;;2519406;54;21014;-67
2024/02/05 05:45:59;;;;;;;3.55;1.40;;;10.90;72.10;;;;;;2515380;54;20954;-66
2024/02/05 05:48:25;;;;;;;2.50;1.10;;;10.90;72.20;;;;;;2513834;54;21052;-67
2024/02/05 05:50:51;;;;;;;2.25;1.10;;;11.00;72.20;;;;;;2518733;54;21057;-68
2024/02/05 05:53:20;;;;;;;3.03;1.12;;;11.00;72.20;;;;;;2510375;54;21338;-66
2024/02/05 05:55:49;;;;;;;3.17;1.17;;;11.00;72.10;;;;;;2519146;54;20965;-68
2024/02/05 05:58:15;;;;;;;2.53;1.08;;;11.00;72.20;;;;;;2284527;55;21277;-66
2024/02/05 06:00:42;;;;;;;2.35;1.08;;;11.00;72.20;;;;;;2285676;55;20917;-68
2024/02/05 06:03:09;;;;;;;3.58;1.30;;;11.00;72.20;;;;;;2520133;54;21310;-67
2024/02/05 06:05:36;;;;;;;3.47;1.30;;;11.00;72.30;;;;;;2286295;55;20993;-67
2024/02/05 06:08:02;;;;;;;3.53;1.52;;;11.00;72.30;;;;;;2286693;55;20989;-68
2024/02/05 06:10:29;;;;;;;2.85;1.42;;;11.00;72.20;;;;;;2520008;54;20949;-67
2024/02/05 06:12:58;;;;;;;3.92;1.45;;;11.00;72.30;;;;;;2520511;54;21067;-68
2024/02/05 06:15:25;;;;;;;3.20;1.40;;;11.10;72.40;;;;;;2285957;55;21170;-67
2024/02/05 06:17:51;;;;;;;4.62;1.50;;;11.10;72.30;;;;;;2286410;55;21216;-67
2024/02/05 06:20:17;;;;;;;2.80;1.23;;;11.10;72.20;;;;;;2519972;54;21025;-67
2024/02/05 06:22:44;;;;;;;4.55;1.45;;;11.10;72.10;;;;;;2286509;56;20946;-67
2024/02/05 06:25:11;;;;;;;3.10;1.30;;;11.10;72.10;;;;;;2510467;55;20938;-67
2024/02/05 06:27:37;;;;;;;2.90;1.20;;;11.10;72.10;;;;;;2515968;54;20941;-67
2024/02/05 06:30:04;;;;;;;2.08;0.90;;;11.10;72.10;;;;;;2286807;55;21048;-67
2024/02/05 06:32:30;;;;;;;3.00;1.10;;;11.10;72.10;;;;;;2286410;55;21840;-69
2024/02/05 06:34:57;;;;;;;4.15;1.25;;;11.10;72.20;;;;;;2286766;55;20945;-68
2024/02/05 06:37:23;;;;;;;2.92;1.30;;;11.10;72.20;;;;;;2288301;55;21454;-67
2024/02/05 06:39:49;;;;;;;5.78;1.70;;;11.10;72.10;;;;;;2509578;55;21010;-67
2024/02/05 06:42:16;;;;;;;5.62;2.83;;;11.10;72.10;;;;;;2518011;54;21021;-68
2024/02/05 06:44:45;;;;;;;4.15;2.15;;;11.10;72.00;;;;;;2519982;54;20941;-67
2024/02/05 06:47:12;;;;;;;3.53;1.80;;;11.10;71.90;;;;;;2519904;54;21328;-67
2024/02/05 06:49:39;;;;;;;4.37;1.73;;;11.10;71.80;;;;;;2286194;55;21807;-67
2024/02/05 06:52:06;;;;;;;4.65;2.15;;;11.10;71.90;;;;;;2285892;55;21002;-68
2024/02/05 06:54:35;;;;;;;4.55;1.50;;;11.10;71.90;;;;;;2286351;55;20910;-67
2024/02/05 06:57:02;;;;;;;3.05;1.50;;;11.20;72.00;;;;;;2286113;55;21019;-67
2024/02/05 06:59:29;;;;;;;3.10;1.65;;;11.10;71.90;;;;;;2286315;55;20961;-67
2024/02/05 07:01:56;;;;;;;3.47;1.80;;;11.10;71.90;;;;;;2521037;54;21076;-67
2024/02/05 07:04:27;;;;;;;4.20;1.70;;;11.10;72.00;;;;;;2286067;55;20985;-67
2024/02/05 07:06:53;;;;;;;3.72;1.50;;;11.10;72.00;;;;;;2286927;55;20938;-67
2024/02/05 07:09:21;;;;;;;2.95;1.30;;;11.10;72.00;;;;;;2519915;54;20949;-67
2024/02/05 07:11:48;;;;;;;5.07;1.83;;;11.10;72.10;;;;;;2286460;55;20933;-67
2024/02/05 07:14:14;;;;;;;5.07;2.00;;;11.10;72.00;;;;;;2289420;55;20930;-68
2024/02/05 07:16:40;;;;;;;3.40;1.40;;;11.20;72.10;;;;;;2511560;55;20946;-67
2024/02/05 07:19:07;;;;;;;3.95;1.52;;;11.10;72.00;;;;;;2286933;56;21073;-66
2024/02/05 07:21:34;;;;;;;4.47;2.05;;;11.10;72.00;;;;;;2286174;55;20929;-67
2024/02/05 07:24:00;;;;;;;4.00;1.62;;;11.10;71.90;;;;;;2286281;56;21029;-67
2024/02/05 07:26:32;;;;;;;4.05;1.70;;;11.10;72.00;;;;;;2283865;56;20974;-67
2024/02/05 07:28:59;;;;;;;3.95;1.77;;;11.10;72.00;;;;;;2281553;56;21931;-66
2024/02/05 07:31:26;;;;;;;3.37;1.77;;;11.10;72.00;;;;;;2520203;54;20938;-68
2024/02/05 07:33:52;;;;;;;3.47;1.52;;;11.20;72.00;;;;;;2286968;55;20925;-68
2024/02/05 07:36:18;;;;;;;2.97;1.48;;;11.20;72.00;;;;;;2286202;55;20965;-68
2024/02/05 07:38:44;;;;;;;3.85;1.48;;;11.20;72.00;;;;;;2286322;55;20929;-66
2024/02/05 07:41:15;;;;;;;3.53;1.45;;;11.20;72.00;;;;;;2286130;55;20925;-67
2024/02/05 07:43:41;;;;;;;3.03;1.25;;;11.20;72.00;;;;;;2520683;54;21775;-67
2024/02/05 07:46:08;;;;;;;2.97;1.35;;;11.20;72.20;;;;;;2287194;55;20949;-67
2024/02/05 07:48:38;;;;;;;2.80;1.30;;;11.20;72.20;;;;;;2285202;56;20914;-68
2024/02/05 07:51:04;;;;;;;3.22;1.33;;;11.20;72.10;;;;;;2286765;55;20945;-68
2024/02/05 07:53:32;;;;;;;3.50;1.35;;;11.20;72.90;;;;;;2285985;55;20953;-68
2024/02/05 07:55:58;;;;;;;3.62;1.42;;;11.20;72.20;;;;;;2286506;55;20948;-68
2024/02/05 07:58:24;;;;;;;2.67;1.10;;;11.30;72.30;;;;;;2519695;54;21493;-67
2024/02/05 08:00:51;;;;;;;2.35;1.12;;;11.30;72.30;;;;;;2286417;55;20960;-66
2024/02/05 08:03:17;;;;;;;3.65;1.00;;;11.30;72.30;;;;;;2286366;56;20945;-68
2024/02/05 08:05:44;;;;;;;2.42;1.20;;;11.30;72.30;;;;;;2519894;54;21032;-68
2024/02/05 08:08:11;;;;;;;2.97;1.12;;;11.30;72.30;;;;;;2285997;55;20941;-68
2024/02/05 08:10:37;;;;;;;4.62;2.45;;;11.30;72.40;;;;;;2516606;54;20982;-68
2024/02/05 08:13:04;;;;;;;4.53;2.00;;;11.40;72.40;;;;;;2280166;56;20946;-68
2024/02/05 08:15:31;;;;;;;2.83;1.45;;;11.40;72.40;;;;;;2519414;54;20968;-68
2024/02/05 08:17:58;;;;;;;3.22;1.40;;;11.40;72.30;;;;;;2520375;54;21490;-68
2024/02/05 08:20:24;;;;;;;3.03;1.48;;;11.40;72.40;;;;;;2286164;55;21088;-67
2024/02/05 08:22:52;;;;;;;3.12;1.20;;;11.40;72.30;;;;;;2520206;54;20897;-66
2024/02/05 08:25:18;;;;;;;2.78;1.25;;;11.40;72.40;;;;;;2520138;54;20952;-66
2024/02/05 08:27:45;;;;;;;2.78;1.00;;;11.40;72.30;;;;;;2520512;54;21742;-66
2024/02/05 08:30:12;;;;;;;3.05;1.17;;;11.40;72.20;;;;;;2520565;54;20929;-68
2024/02/05 08:32:39;;;;;;;3.37;1.10;;;11.50;72.30;;;;;;2520566;54;20954;-68
2024/02/05 08:35:05;;;;;;;2.50;1.10;;;11.50;72.30;;;;;;2520316;54;20965;-67
2024/02/05 08:37:33;;;;;;;2.33;1.00;;;11.50;72.30;;;;;;2286208;55;20982;-67
2024/02/05 08:39:59;;;;;;;4.43;1.27;;;11.50;72.20;;;;;;2286391;56;20953;-68
2024/02/05 08:42:26;;;;;;;2.30;1.00;;;11.60;72.30;;;;;;2520222;54;21316;-67
2024/02/05 08:44:54;;;;;;;2.87;0.98;;;11.60;72.30;;;;;;2287538;55;21001;-68
2024/02/05 08:47:21;;;;;;;2.17;0.98;;;11.60;72.20;;;;;;2286341;55;21387;-68
2024/02/05 08:49:48;;;;;;;3.50;1.35;;;11.60;72.20;;;;;;2285675;55;20945;-69
2024/02/05 08:52:15;;;;;;;3.05;1.00;;;11.60;72.20;;;;;;2520168;54;21711;-68
2024/02/05 08:54:41;;;;;;;2.47;1.20;;;11.60;72.20;;;;;;2286681;55;20910;-69
2024/02/05 08:57:08;;;;;;;3.15;1.25;;;11.60;72.20;;;;;;2286753;55;20929;-67
2024/02/05 08:59:34;;;;;;;2.90;1.30;;;11.70;72.20;;;;;;2286083;55;21190;-68
2024/02/05 09:02:00;;;;;;;2.72;1.23;;;11.60;72.80;;;;;;2286378;55;21189;-67
2024/02/05 09:04:27;;;;;;;3.90;1.70;;;11.70;72.20;;;;;;2520177;54;20965;-68
2024/02/05 09:06:53;;;;;;;3.83;1.37;;;11.70;72.20;;;;;;2286227;55;20929;-67
2024/02/05 09:09:20;;;;;;;2.60;1.25;;;11.70;72.20;;;;;;2520088;54;20985;-68
2024/02/05 09:11:47;;;;;;;4.62;2.40;;;11.70;72.20;;;;;;2520205;54;20995;-67
2024/02/05 09:14:14;;;;;;;3.62;2.10;;;11.70;72.20;;;;;;2520199;54;20929;-67
2024/02/05 09:16:41;;;;;;;4.75;2.53;;;11.70;72.20;;;;;;2286239;55;21012;-66
2024/02/05 09:19:07;;;;;;;5.57;2.85;;;11.70;72.10;;;;;;2286254;56;21021;-68
2024/02/05 09:21:33;;;;;;;4.62;2.60;;;11.80;72.30;;;;;;2285902;55;21401;-66
2024/02/05 09:24:00;;;;;;;3.53;1.83;;;11.80;72.30;;;;;;2286342;56;20964;-68
2024/02/05 09:26:26;;;;;;;3.90;1.98;;;11.80;72.30;;;;;;2286234;55;20933;-67
2024/02/05 09:28:52;;;;;;;2.45;1.30;;;11.80;72.30;;;;;;2285649;55;20953;-67
2024/02/05 09:31:19;;;;;;;3.40;1.37;;;11.90;72.40;;;;;;2285913;55;21005;-69
2024/02/05 09:33:45;;;;;;;2.92;1.20;;;11.90;72.40;;;;;;2511519;55;21006;-67
2024/02/05 09:36:12;;;;;;;2.30;1.00;;;11.90;72.40;;;;;;2519505;54;20921;-69
2024/02/05 09:38:38;;;;;;;3.30;1.20;;;11.90;72.50;;;;;;2286287;55;21782;-68
2024/02/05 09:41:09;;;;;;;3.87;1.17;;;12.00;72.60;;;;;;2520556;54;20949;-68
2024/02/05 09:43:35;;;;;;;3.10;1.20;;;12.00;72.60;;;;;;2285976;55;20978;-66
2024/02/05 09:46:05;;;;;;;3.05;1.10;;;12.10;72.70;;;;;;2513978;54;21010;-66
2024/02/05 09:48:34;;;;;;;4.00;1.00;;;12.10;72.50;;;;;;2516171;54;21749;-68
2024/02/05 09:51:03;;;;;;;3.22;1.30;;;12.10;72.60;;;;;;2286685;55;21514;-68
2024/02/05 09:53:30;;;;;;;3.83;1.35;;;12.20;72.90;;;;;;2512207;54;20946;-67
2024/02/05 09:55:57;;;;;;;4.72;2.10;;;12.20;72.90;;;;;;2517256;54;20945;-68
2024/02/05 09:58:23;;;;;;;11.82;6.37;;;12.20;72.90;;;;;;2285918;55;20952;-67
2024/02/05 10:00:49;;;;;;;20.10;10.18;;;12.30;72.90;;;;;;2520573;54;20945;-67
2024/02/05 10:03:16;;;;;;;15.13;8.32;;;12.30;72.90;;;;;;2285932;55;21040;-68
2024/02/05 10:05:46;;;;;;;12.43;6.85;;;12.30;72.90;;;;;;2520227;54;20977;-68
2024/02/05 10:08:13;;;;;;;8.40;4.43;;;12.40;73.10;;;;;;2281656;55;21044;-67
2024/02/05 10:10:40;;;;;;;7.37;4.37;;;12.40;73.10;;;;;;2520289;54;20941;-68
2024/02/05 10:13:07;;;;;;;8.45;4.53;;;12.50;73.20;;;;;;2520141;54;20997;-69
2024/02/05 10:15:34;;;;;;;6.45;4.12;;;12.50;73.10;;;;;;2286130;55;20953;-68
2024/02/05 10:18:00;;;;;;;6.22;2.97;;;12.60;73.20;;;;;;2285869;55;20965;-67
2024/02/05 10:20:33;;;;;;;7.37;3.72;;;12.60;73.20;;;;;;2285919;55;20933;-69
2024/02/05 10:23:00;;;;;;;8.63;3.75;;;12.70;73.20;;;;;;2512702;54;21416;-66
2024/02/05 10:25:27;;;;;;;6.37;3.00;;;12.70;73.70;;;;;;2518431;54;21441;-67
2024/02/05 10:28:03;;;;;;;7.47;3.40;;;12.80;73.80;;;;;;2286239;55;20969;-69
2024/02/05 10:30:30;;;;;;;5.75;2.80;;;12.90;73.30;;;;;;2520306;54;20950;-69
2024/02/05 10:33:01;;;;;;;6.78;2.97;;;12.90;73.90;;;;;;2520248;54;20976;-69
2024/02/05 10:35:27;;;;;;;4.03;2.42;;;13.00;74.20;;;;;;2285840;55;21032;-67
2024/02/05 10:38:05;;;;;;;4.03;1.87;;;13.10;74.30;;;;;;2518336;54;20925;-68
2024/02/05 10:40:36;;;;;;;3.05;1.45;;;13.10;74.30;;;;;;2285903;56;20929;-67
2024/02/05 10:43:04;;;;;;;4.18;1.45;;;13.20;74.20;;;;;;2286296;56;21276;-67
2024/02/05 10:45:31;;;;;;;3.25;1.50;;;13.30;74.50;;;;;;2286295;55;20933;-66
2024/02/05 10:47:57;;;;;;;3.05;1.25;;;13.40;74.40;;;;;;2520241;54;21819;-69
2024/02/05 10:50:24;;;;;;;3.65;1.77;;;13.50;74.30;;;;;;2286888;55;20942;-67
2024/02/05 10:52:51;;;;;;;4.50;2.30;;;13.50;74.20;;;;;;2520672;54;20989;-69
2024/02/05 10:55:17;;;;;;;5.12;2.00;;;13.60;75.00;;;;;;2519669;54;20921;-68
2024/02/05 10:57:44;;;;;;;2.40;1.20;;;13.60;74.40;;;;;;2285823;55;21436;-68
2024/02/05 11:00:14;;;;;;;3.30;1.48;;;13.70;74.60;;;;;;2286872;55;21029;-68
2024/02/05 11:02:43;;;;;;;2.75;1.12;;;13.80;74.50;;;;;;2520807;54;20933;-68
2024/02/05 11:05:12;;;;;;;3.20;1.27;;;13.80;74.40;;;;;;2285937;55;21005;-68
2024/02/05 11:07:51;;;;;;;2.33;1.05;;;13.90;74.60;;;;;;2282430;55;21009;-69
2024/02/05 11:10:18;;;;;;;2.70;1.00;;;14.00;74.00;;;;;;2286411;55;20949;-67
2024/02/05 11:12:44;;;;;;;2.83;1.20;;;14.10;75.20;;;;;;2286489;55;20977;-66
2024/02/05 11:15:11;;;;;;;3.90;1.83;;;14.20;75.60;;;;;;2286208;55;20973;-67
2024/02/05 11:17:37;;;;;;;4.37;1.70;;;14.20;76.00;;;;;;2520242;54;21813;-67
2024/02/05 11:20:05;;;;;;;3.15;1.42;;;14.40;76.40;;;;;;2520350;54;21409;-69
2024/02/05 11:22:31;;;;;;;5.72;2.17;;;14.50;76.40;;;;;;2286192;55;20945;-67
2024/02/05 11:24:59;;;;;;;5.82;1.67;;;14.60;76.60;;;;;;2286011;55;21020;-68
2024/02/05 11:27:25;;;;;;;3.20;1.77;;;14.70;76.40;;;;;;2286236;55;21021;-68
2024/02/05 11:29:52;;;;;;;2.20;1.02;;;14.80;76.10;;;;;;2286194;55;21053;-68
2024/02/05 11:32:28;;;;;;;2.30;0.90;;;14.90;75.80;;;;;;2286376;55;20948;-70
2024/02/05 11:34:54;;;;;;;3.42;1.10;;;15.00;74.50;;;;;;2287021;55;20998;-70
2024/02/05 11:37:24;;;;;;;2.50;1.00;;;15.00;75.20;;;;;;2520099;54;20953;-68
2024/02/05 11:39:53;;;;;;;2.22;1.00;;;15.10;74.90;;;;;;2519149;54;21041;-69
2024/02/05 11:42:23;;;;;;;2.17;0.73;;;15.10;74.20;;;;;;2286000;55;20974;-68
2024/02/05 11:44:49;;;;;;;2.67;0.80;;;15.10;73.90;;;;;;2520773;54;21009;-69
2024/02/05 11:47:16;;;;;;;1.83;0.70;;;15.10;73.60;;;;;;2286448;55;21256;-67
2024/02/05 11:49:43;;;;;;;3.53;1.00;;;15.10;73.40;;;;;;2521087;54;21005;-68
2024/02/05 11:52:10;;;;;;;4.47;1.00;;;15.10;73.10;;;;;;2287216;55;21005;-69
2024/02/05 11:54:36;;;;;;;2.75;1.10;;;15.10;72.90;;;;;;2286114;55;21021;-67
2024/02/05 11:57:04;;;;;;;3.75;0.90;;;15.10;72.40;;;;;;2284993;55;20965;-69
2024/02/05 11:59:30;;;;;;;2.28;0.85;;;15.00;72.10;;;;;;2285326;55;21089;-68
2024/02/05 12:01:56;;;;;;;2.35;0.90;;;15.00;72.00;;;;;;2286499;55;20957;-68
2024/02/05 12:04:22;;;;;;;1.75;0.90;;;15.00;71.90;;;;;;2284260;55;20929;-68
2024/02/05 12:06:49;;;;;;;2.62;0.90;;;14.90;71.90;;;;;;2286981;55;21754;-66
2024/02/05 12:09:16;;;;;;;2.85;0.93;;;14.90;72.00;;;;;;2285942;55;20937;-69
2024/02/05 12:11:42;;;;;;;3.42;1.10;;;14.90;72.00;;;;;;2282163;55;20966;-68
2024/02/05 12:14:10;;;;;;;2.53;1.10;;;14.70;71.90;;;;;;2286112;55;20945;-68
2024/02/05 12:16:40;;;;;;;3.90;0.90;;;14.90;72.20;;;;;;2286553;55;20945;-69
2024/02/05 12:43:57;;;;;;;2.50;1.00;;;14.80;71.30;;;;;;2506711;54;21035;-68
2024/02/05 12:46:38;;;;;;;2.35;1.10;;;14.80;71.40;;;;;;2260107;56;21741;-67
2024/02/05 12:49:04;;;;;;;2.55;1.05;;;14.80;73.30;;;;;;2501799;55;21056;-69
2024/02/05 12:51:30;;;;;;;2.70;1.12;;;14.90;72.40;;;;;;2271791;57;21223;-68
2024/02/05 12:53:58;;;;;;;2.20;0.90;;;14.70;72.20;;;;;;2502548;54;20907;-69
2024/02/05 12:56:24;;;;;;;1.92;0.90;;;14.70;72.50;;;;;;2277251;56;20963;-70
2024/02/05 12:58:51;;;;;;;2.80;1.20;;;14.80;72.80;;;;;;2279311;56;21026;-68
2024/02/05 13:01:22;;;;;;;2.40;1.10;;;14.70;72.80;;;;;;2260937;54;51120;-67
2024/02/05 13:03:51;;;;;;;3.47;1.40;;;14.80;72.60;;;;;;2215542;56;21417;-68
2024/02/05 13:06:23;;;;;;;3.05;1.30;;;14.80;72.60;;;;;;2434812;56;21274;-68
2024/02/05 13:08:52;;;;;;;;;;;14.80;72.10;;;;;;2218375;57;20961;-69
2024/02/05 13:11:19;;;;;;;2.45;0.80;;;14.80;70.50;;;;;;2215443;57;20630;-67
2024/02/05 13:13:45;;;;;;;2.55;1.12;;;14.80;72.60;;;;;;2435254;56;20990;-67